Terminal Aerodrome Forecast
Issued by NWS

Home | Current Version | Previous Version | Text Only | Print | Product List | Glossary On
Versions: 1 2 3 4 5 6 7 8 9 10 11 12 13 14 15 16 17 18 19 20 21 22 23 24 25 26 27 28 29 30 31 32 33 34 35 36 37 38 39 40 41 42 43 44
000
FTUS43 KDMX 220301 AAC
TAFFOD
TAF AMD
KFOD 220301Z 2203/2224 29009G16KT P6SM BKN035 BKN070
     FM220800 28006KT P6SM SCT250
     FM221700 29008G13KT P6SM SKC
     FM222200 26007KT P6SM SKC=

USA.gov is the U.S. government's official web portal to all federal, state and local government web resources and services.